sensor_id;sensor_type;location;lat;lon;timestamp;P1;durP1;ratioP1;P2;durP2;ratioP2
30147;SDS011;16960;49.404;8.248;2023-09-19T00:00:25;1.00;;;0.60;;
30147;SDS011;16960;49.404;8.248;2023-09-19T00:02:53;0.77;;;0.60;;
30147;SDS011;16960;49.404;8.248;2023-09-19T00:05:26;0.77;;;0.50;;
30147;SDS011;16960;49.404;8.248;2023-09-19T00:07:54;0.97;;;0.60;;
30147;SDS011;16960;49.404;8.248;2023-09-19T00:10:23;0.73;;;0.50;;
30147;SDS011;16960;49.404;8.248;2023-09-19T00:12:52;1.23;;;0.60;;
30147;SDS011;16960;49.404;8.248;2023-09-19T00:15:21;2.67;;;0.80;;
30147;SDS011;16960;49.404;8.248;2023-09-19T00:17:48;1.50;;;0.77;;
30147;SDS011;16960;49.404;8.248;2023-09-19T00:20:18;1.60;;;0.60;;
30147;SDS011;16960;49.404;8.248;2023-09-19T00:22:49;2.40;;;0.80;;
30147;SDS011;16960;49.404;8.248;2023-09-19T00:25:17;0.80;;;0.60;;
30147;SDS011;16960;49.404;8.248;2023-09-19T00:27:44;1.10;;;0.60;;
30147;SDS011;16960;49.404;8.248;2023-09-19T00:30:14;2.50;;;0.60;;
30147;SDS011;16960;49.404;8.248;2023-09-19T00:32:44;0.90;;;0.70;;
30147;SDS011;16960;49.404;8.248;2023-09-19T00:35:12;0.90;;;0.60;;
30147;SDS011;16960;49.404;8.248;2023-09-19T00:37:40;1.13;;;0.90;;
30147;SDS011;16960;49.404;8.248;2023-09-19T00:40:09;0.90;;;0.67;;
30147;SDS011;16960;49.404;8.248;2023-09-19T00:42:37;0.73;;;0.50;;
30147;SDS011;16960;49.404;8.248;2023-09-19T00:45:06;0.60;;;0.50;;
30147;SDS011;16960;49.404;8.248;2023-09-19T00:47:36;1.83;;;0.60;;
30147;SDS011;16960;49.404;8.248;2023-09-19T00:50:04;0.67;;;0.67;;
30147;SDS011;16960;49.404;8.248;2023-09-19T00:52:33;0.90;;;0.50;;
30147;SDS011;16960;49.404;8.248;2023-09-19T00:55:02;1.40;;;0.77;;
30147;SDS011;16960;49.404;8.248;2023-09-19T00:57:31;1.53;;;0.60;;
30147;SDS011;16960;49.404;8.248;2023-09-19T00:59:58;1.13;;;0.50;;
30147;SDS011;16960;49.404;8.248;2023-09-19T01:02:30;1.10;;;0.70;;
30147;SDS011;16960;49.404;8.248;2023-09-19T01:04:57;0.97;;;0.70;;
30147;SDS011;16960;49.404;8.248;2023-09-19T01:07:25;1.37;;;0.87;;
30147;SDS011;16960;49.404;8.248;2023-09-19T01:09:55;0.70;;;0.60;;
30147;SDS011;16960;49.404;8.248;2023-09-19T01:12:27;3.20;;;0.57;;
30147;SDS011;16960;49.404;8.248;2023-09-19T01:15:02;0.73;;;0.63;;
30147;SDS011;16960;49.404;8.248;2023-09-19T01:17:38;1.70;;;0.57;;
30147;SDS011;16960;49.404;8.248;2023-09-19T01:20:15;1.67;;;0.80;;
30147;SDS011;16960;49.404;8.248;2023-09-19T01:23:00;0.70;;;0.50;;
30147;SDS011;16960;49.404;8.248;2023-09-19T01:28:34;1.47;;;0.80;;
30147;SDS011;16960;49.404;8.248;2023-09-19T01:31:13;1.00;;;0.60;;
30147;SDS011;16960;49.404;8.248;2023-09-19T01:33:54;1.13;;;0.60;;
30147;SDS011;16960;49.404;8.248;2023-09-19T01:36:24;0.90;;;0.63;;
30147;SDS011;16960;49.404;8.248;2023-09-19T01:38:55;0.77;;;0.53;;
30147;SDS011;16960;49.404;8.248;2023-09-19T01:41:38;0.60;;;0.50;;
30147;SDS011;16960;49.404;8.248;2023-09-19T01:44:15;1.23;;;0.93;;
30147;SDS011;16960;49.404;8.248;2023-09-19T01:46:49;1.00;;;0.57;;
30147;SDS011;16960;49.404;8.248;2023-09-19T01:49:19;0.80;;;0.60;;
30147;SDS011;16960;49.404;8.248;2023-09-19T01:51:53;1.00;;;0.80;;
30147;SDS011;16960;49.404;8.248;2023-09-19T01:54:30;1.20;;;0.50;;
30147;SDS011;16960;49.404;8.248;2023-09-19T01:56:59;0.87;;;0.60;;
30147;SDS011;16960;49.404;8.248;2023-09-19T01:59:35;0.70;;;0.53;;
30147;SDS011;16960;49.404;8.248;2023-09-19T02:02:09;0.73;;;0.63;;
30147;SDS011;16960;49.404;8.248;2023-09-19T02:04:37;1.83;;;0.80;;
30147;SDS011;16960;49.404;8.248;2023-09-19T02:07:04;0.43;;;0.43;;
30147;SDS011;16960;49.404;8.248;2023-09-19T02:09:33;0.60;;;0.40;;
30147;SDS011;16960;49.404;8.248;2023-09-19T02:12:00;1.20;;;0.57;;
30147;SDS011;16960;49.404;8.248;2023-09-19T02:14:29;1.40;;;0.77;;
30147;SDS011;16960;49.404;8.248;2023-09-19T02:16:57;1.53;;;0.70;;
30147;SDS011;16960;49.404;8.248;2023-09-19T02:19:26;0.70;;;0.50;;
30147;SDS011;16960;49.404;8.248;2023-09-19T02:21:54;0.73;;;0.60;;
30147;SDS011;16960;49.404;8.248;2023-09-19T02:24:21;2.00;;;0.80;;
30147;SDS011;16960;49.404;8.248;2023-09-19T02:26:49;1.27;;;0.50;;
30147;SDS011;16960;49.404;8.248;2023-09-19T02:29:17;1.63;;;0.70;;
30147;SDS011;16960;49.404;8.248;2023-09-19T02:31:44;0.70;;;0.50;;
30147;SDS011;16960;49.404;8.248;2023-09-19T02:34:11;0.67;;;0.60;;
30147;SDS011;16960;49.404;8.248;2023-09-19T02:36:40;0.77;;;0.50;;
30147;SDS011;16960;49.404;8.248;2023-09-19T02:39:09;0.83;;;0.60;;
30147;SDS011;16960;49.404;8.248;2023-09-19T02:41:36;1.23;;;0.70;;
30147;SDS011;16960;49.404;8.248;2023-09-19T02:44:03;1.07;;;0.63;;
30147;SDS011;16960;49.404;8.248;2023-09-19T02:46:32;1.03;;;0.70;;
30147;SDS011;16960;49.404;8.248;2023-09-19T02:49:02;0.80;;;0.70;;
30147;SDS011;16960;49.404;8.248;2023-09-19T02:51:30;0.90;;;0.43;;
30147;SDS011;16960;49.404;8.248;2023-09-19T02:53:59;1.00;;;0.60;;
30147;SDS011;16960;49.404;8.248;2023-09-19T02:56:28;1.20;;;0.67;;
30147;SDS011;16960;49.404;8.248;2023-09-19T02:58:55;1.20;;;0.60;;
30147;SDS011;16960;49.404;8.248;2023-09-19T03:01:22;1.27;;;0.70;;
30147;SDS011;16960;49.404;8.248;2023-09-19T03:03:49;1.03;;;0.60;;
30147;SDS011;16960;49.404;8.248;2023-09-19T03:06:17;0.90;;;0.80;;
30147;SDS011;16960;49.404;8.248;2023-09-19T03:08:45;1.53;;;0.70;;
30147;SDS011;16960;49.404;8.248;2023-09-19T03:11:15;1.00;;;0.60;;
30147;SDS011;16960;49.404;8.248;2023-09-19T03:13:50;1.83;;;0.80;;
30147;SDS011;16960;49.404;8.248;2023-09-19T03:16:17;0.93;;;0.50;;
30147;SDS011;16960;49.404;8.248;2023-09-19T03:18:46;1.00;;;0.73;;
30147;SDS011;16960;49.404;8.248;2023-09-19T03:21:14;1.33;;;0.60;;
30147;SDS011;16960;49.404;8.248;2023-09-19T03:23:42;1.00;;;0.60;;
30147;SDS011;16960;49.404;8.248;2023-09-19T03:26:10;1.60;;;0.70;;
30147;SDS011;16960;49.404;8.248;2023-09-19T03:28:39;1.57;;;0.50;;
30147;SDS011;16960;49.404;8.248;2023-09-19T03:31:07;1.90;;;0.80;;
30147;SDS011;16960;49.404;8.248;2023-09-19T03:33:35;2.30;;;0.93;;
30147;SDS011;16960;49.404;8.248;2023-09-19T03:36:02;0.90;;;0.70;;
30147;SDS011;16960;49.404;8.248;2023-09-19T03:38:30;1.10;;;0.73;;
30147;SDS011;16960;49.404;8.248;2023-09-19T03:40:59;1.17;;;0.60;;
30147;SDS011;16960;49.404;8.248;2023-09-19T03:43:26;1.27;;;0.70;;
30147;SDS011;16960;49.404;8.248;2023-09-19T03:45:54;0.90;;;0.67;;
30147;SDS011;16960;49.404;8.248;2023-09-19T03:48:21;0.63;;;0.60;;
30147;SDS011;16960;49.404;8.248;2023-09-19T03:50:48;2.20;;;1.00;;
30147;SDS011;16960;49.404;8.248;2023-09-19T03:53:16;1.13;;;0.83;;
30147;SDS011;16960;49.404;8.248;2023-09-19T03:55:44;1.57;;;0.70;;
30147;SDS011;16960;49.404;8.248;2023-09-19T03:58:12;1.13;;;0.97;;
30147;SDS011;16960;49.404;8.248;2023-09-19T04:00:39;0.90;;;0.70;;
30147;SDS011;16960;49.404;8.248;2023-09-19T04:03:07;0.60;;;0.60;;
30147;SDS011;16960;49.404;8.248;2023-09-19T04:05:35;1.80;;;0.87;;
30147;SDS011;16960;49.404;8.248;2023-09-19T04:08:03;1.47;;;0.50;;
30147;SDS011;16960;49.404;8.248;2023-09-19T04:10:30;0.77;;;0.60;;
30147;SDS011;16960;49.404;8.248;2023-09-19T04:12:57;0.93;;;0.70;;
30147;SDS011;16960;49.404;8.248;2023-09-19T04:15:24;1.07;;;0.80;;
30147;SDS011;16960;49.404;8.248;2023-09-19T04:17:52;1.47;;;0.80;;
30147;SDS011;16960;49.404;8.248;2023-09-19T04:20:20;1.00;;;0.70;;
30147;SDS011;16960;49.404;8.248;2023-09-19T04:22:51;1.10;;;0.77;;
30147;SDS011;16960;49.404;8.248;2023-09-19T04:25:18;2.00;;;0.70;;
30147;SDS011;16960;49.404;8.248;2023-09-19T04:27:45;1.53;;;0.80;;
30147;SDS011;16960;49.404;8.248;2023-09-19T04:30:12;1.00;;;0.60;;
30147;SDS011;16960;49.404;8.248;2023-09-19T04:32:40;1.03;;;0.70;;
30147;SDS011;16960;49.404;8.248;2023-09-19T04:35:07;1.30;;;0.70;;
30147;SDS011;16960;49.404;8.248;2023-09-19T04:37:37;1.43;;;0.50;;
30147;SDS011;16960;49.404;8.248;2023-09-19T04:40:06;0.90;;;0.60;;
30147;SDS011;16960;49.404;8.248;2023-09-19T04:42:38;0.90;;;0.80;;
30147;SDS011;16960;49.404;8.248;2023-09-19T04:45:06;0.70;;;0.57;;
30147;SDS011;16960;49.404;8.248;2023-09-19T04:47:34;1.17;;;0.90;;
30147;SDS011;16960;49.404;8.248;2023-09-19T04:50:04;1.07;;;0.77;;
30147;SDS011;16960;49.404;8.248;2023-09-19T04:52:40;1.83;;;0.93;;
30147;SDS011;16960;49.404;8.248;2023-09-19T04:55:09;1.17;;;0.77;;
30147;SDS011;16960;49.404;8.248;2023-09-19T04:57:42;1.23;;;0.70;;
30147;SDS011;16960;49.404;8.248;2023-09-19T05:00:10;0.97;;;0.70;;
30147;SDS011;16960;49.404;8.248;2023-09-19T05:02:39;0.70;;;0.63;;
30147;SDS011;16960;49.404;8.248;2023-09-19T05:05:07;1.20;;;0.70;;
30147;SDS011;16960;49.404;8.248;2023-09-19T05:07:35;1.07;;;0.80;;
30147;SDS011;16960;49.404;8.248;2023-09-19T05:10:04;1.13;;;0.90;;
30147;SDS011;16960;49.404;8.248;2023-09-19T05:12:32;1.50;;;1.17;;
30147;SDS011;16960;49.404;8.248;2023-09-19T05:15:00;1.07;;;0.77;;
30147;SDS011;16960;49.404;8.248;2023-09-19T05:17:28;0.70;;;0.67;;
30147;SDS011;16960;49.404;8.248;2023-09-19T05:19:56;0.80;;;0.80;;
30147;SDS011;16960;49.404;8.248;2023-09-19T05:22:23;1.10;;;0.83;;
30147;SDS011;16960;49.404;8.248;2023-09-19T05:24:50;2.60;;;0.90;;
30147;SDS011;16960;49.404;8.248;2023-09-19T05:27:19;0.90;;;0.70;;
30147;SDS011;16960;49.404;8.248;2023-09-19T05:29:47;0.60;;;0.60;;
30147;SDS011;16960;49.404;8.248;2023-09-19T05:32:14;1.30;;;0.80;;
30147;SDS011;16960;49.404;8.248;2023-09-19T05:34:41;1.77;;;0.90;;
30147;SDS011;16960;49.404;8.248;2023-09-19T05:37:08;2.10;;;0.90;;
30147;SDS011;16960;49.404;8.248;2023-09-19T05:39:34;1.57;;;0.97;;
30147;SDS011;16960;49.404;8.248;2023-09-19T05:42:02;2.00;;;1.03;;
30147;SDS011;16960;49.404;8.248;2023-09-19T05:44:31;1.20;;;0.70;;
30147;SDS011;16960;49.404;8.248;2023-09-19T05:46:58;0.87;;;0.80;;
30147;SDS011;16960;49.404;8.248;2023-09-19T05:49:25;1.90;;;0.80;;
30147;SDS011;16960;49.404;8.248;2023-09-19T05:51:52;1.07;;;0.87;;
30147;SDS011;16960;49.404;8.248;2023-09-19T05:54:21;0.90;;;0.70;;
30147;SDS011;16960;49.404;8.248;2023-09-19T05:56:48;1.53;;;0.90;;
30147;SDS011;16960;49.404;8.248;2023-09-19T05:59:18;1.03;;;0.60;;
30147;SDS011;16960;49.404;8.248;2023-09-19T06:01:46;0.80;;;0.80;;
30147;SDS011;16960;49.404;8.248;2023-09-19T06:04:13;1.57;;;0.67;;
30147;SDS011;16960;49.404;8.248;2023-09-19T06:06:40;2.23;;;1.10;;
30147;SDS011;16960;49.404;8.248;2023-09-19T06:09:07;1.83;;;0.80;;
30147;SDS011;16960;49.404;8.248;2023-09-19T06:11:34;2.30;;;1.13;;
30147;SDS011;16960;49.404;8.248;2023-09-19T06:14:01;5.77;;;0.93;;
30147;SDS011;16960;49.404;8.248;2023-09-19T06:16:28;2.10;;;1.00;;
30147;SDS011;16960;49.404;8.248;2023-09-19T06:18:58;2.60;;;0.90;;
30147;SDS011;16960;49.404;8.248;2023-09-19T06:21:26;3.63;;;0.80;;
30147;SDS011;16960;49.404;8.248;2023-09-19T06:23:53;1.27;;;0.70;;
30147;SDS011;16960;49.404;8.248;2023-09-19T06:26:20;2.23;;;1.07;;
30147;SDS011;16960;49.404;8.248;2023-09-19T06:28:48;4.53;;;0.80;;
30147;SDS011;16960;49.404;8.248;2023-09-19T06:31:15;1.97;;;0.90;;
30147;SDS011;16960;49.404;8.248;2023-09-19T06:33:42;2.00;;;0.90;;
30147;SDS011;16960;49.404;8.248;2023-09-19T06:36:10;3.70;;;1.10;;
30147;SDS011;16960;49.404;8.248;2023-09-19T06:38:37;4.43;;;0.90;;
30147;SDS011;16960;49.404;8.248;2023-09-19T06:41:04;3.60;;;0.73;;
30147;SDS011;16960;49.404;8.248;2023-09-19T06:43:32;2.07;;;0.90;;
30147;SDS011;16960;49.404;8.248;2023-09-19T06:46:00;3.90;;;1.00;;
30147;SDS011;16960;49.404;8.248;2023-09-19T06:48:27;2.03;;;0.63;;
30147;SDS011;16960;49.404;8.248;2023-09-19T06:50:55;1.77;;;0.90;;
30147;SDS011;16960;49.404;8.248;2023-09-19T06:53:24;3.10;;;0.87;;
30147;SDS011;16960;49.404;8.248;2023-09-19T06:55:51;1.80;;;0.97;;
30147;SDS011;16960;49.404;8.248;2023-09-19T06:58:19;3.67;;;1.00;;
30147;SDS011;16960;49.404;8.248;2023-09-19T07:00:46;1.20;;;1.00;;
30147;SDS011;16960;49.404;8.248;2023-09-19T07:03:15;2.40;;;1.00;;
30147;SDS011;16960;49.404;8.248;2023-09-19T07:05:43;2.03;;;1.20;;
30147;SDS011;16960;49.404;8.248;2023-09-19T07:08:10;2.97;;;1.07;;
30147;SDS011;16960;49.404;8.248;2023-09-19T07:10:39;2.03;;;1.20;;
30147;SDS011;16960;49.404;8.248;2023-09-19T07:13:07;2.23;;;1.20;;
30147;SDS011;16960;49.404;8.248;2023-09-19T07:15:36;1.10;;;0.93;;
30147;SDS011;16960;49.404;8.248;2023-09-19T07:18:04;1.83;;;1.10;;
30147;SDS011;16960;49.404;8.248;2023-09-19T07:20:32;2.00;;;1.07;;
30147;SDS011;16960;49.404;8.248;2023-09-19T07:22:59;1.40;;;1.10;;
30147;SDS011;16960;49.404;8.248;2023-09-19T07:25:27;1.87;;;1.10;;
30147;SDS011;16960;49.404;8.248;2023-09-19T07:27:56;2.20;;;1.37;;
30147;SDS011;16960;49.404;8.248;2023-09-19T07:30:25;1.87;;;1.50;;
30147;SDS011;16960;49.404;8.248;2023-09-19T07:32:52;6.93;;;1.80;;
30147;SDS011;16960;49.404;8.248;2023-09-19T07:35:19;2.50;;;1.30;;
30147;SDS011;16960;49.404;8.248;2023-09-19T07:37:46;5.20;;;1.10;;
30147;SDS011;16960;49.404;8.248;2023-09-19T07:40:14;1.90;;;1.00;;
30147;SDS011;16960;49.404;8.248;2023-09-19T07:42:42;1.53;;;0.90;;
30147;SDS011;16960;49.404;8.248;2023-09-19T07:45:11;1.90;;;1.37;;
30147;SDS011;16960;49.404;8.248;2023-09-19T07:47:39;2.10;;;1.50;;
30147;SDS011;16960;49.404;8.248;2023-09-19T07:50:06;2.10;;;1.00;;
30147;SDS011;16960;49.404;8.248;2023-09-19T07:52:34;3.90;;;1.60;;
30147;SDS011;16960;49.404;8.248;2023-09-19T07:55:01;2.03;;;1.07;;
30147;SDS011;16960;49.404;8.248;2023-09-19T07:57:34;1.30;;;1.17;;
30147;SDS011;16960;49.404;8.248;2023-09-19T08:00:01;1.93;;;1.63;;
30147;SDS011;16960;49.404;8.248;2023-09-19T08:02:35;2.57;;;1.50;;
30147;SDS011;16960;49.404;8.248;2023-09-19T08:05:03;2.03;;;1.20;;
30147;SDS011;16960;49.404;8.248;2023-09-19T08:07:35;2.03;;;1.20;;
30147;SDS011;16960;49.404;8.248;2023-09-19T08:10:02;5.10;;;1.70;;
30147;SDS011;16960;49.404;8.248;2023-09-19T08:12:30;3.20;;;1.60;;
30147;SDS011;16960;49.404;8.248;2023-09-19T08:14:57;3.73;;;1.53;;
30147;SDS011;16960;49.404;8.248;2023-09-19T08:17:24;2.60;;;1.80;;
30147;SDS011;16960;49.404;8.248;2023-09-19T08:19:52;2.73;;;1.37;;
30147;SDS011;16960;49.404;8.248;2023-09-19T08:22:19;2.80;;;1.80;;
30147;SDS011;16960;49.404;8.248;2023-09-19T08:24:47;2.77;;;1.50;;
30147;SDS011;16960;49.404;8.248;2023-09-19T08:27:14;2.57;;;1.63;;
30147;SDS011;16960;49.404;8.248;2023-09-19T08:29:43;1.50;;;0.93;;
30147;SDS011;16960;49.404;8.248;2023-09-19T08:32:11;2.30;;;1.40;;
30147;SDS011;16960;49.404;8.248;2023-09-19T08:34:38;3.10;;;1.70;;
30147;SDS011;16960;49.404;8.248;2023-09-19T08:37:06;1.90;;;1.20;;
30147;SDS011;16960;49.404;8.248;2023-09-19T08:39:34;3.43;;;1.97;;
30147;SDS011;16960;49.404;8.248;2023-09-19T08:42:02;2.57;;;1.20;;
30147;SDS011;16960;49.404;8.248;2023-09-19T08:44:29;3.73;;;1.70;;
30147;SDS011;16960;49.404;8.248;2023-09-19T08:47:06;2.83;;;1.57;;
30147;SDS011;16960;49.404;8.248;2023-09-19T08:49:39;2.53;;;1.57;;
30147;SDS011;16960;49.404;8.248;2023-09-19T08:52:16;1.43;;;1.33;;
30147;SDS011;16960;49.404;8.248;2023-09-19T08:54:48;2.30;;;1.37;;
30147;SDS011;16960;49.404;8.248;2023-09-19T08:57:18;2.43;;;1.40;;
30147;SDS011;16960;49.404;8.248;2023-09-19T08:59:47;1.60;;;1.00;;
30147;SDS011;16960;49.404;8.248;2023-09-19T09:02:15;2.00;;;1.30;;
30147;SDS011;16960;49.404;8.248;2023-09-19T09:04:44;2.07;;;1.53;;
30147;SDS011;16960;49.404;8.248;2023-09-19T09:07:13;3.97;;;2.23;;
30147;SDS011;16960;49.404;8.248;2023-09-19T09:09:44;4.10;;;1.50;;
30147;SDS011;16960;49.404;8.248;2023-09-19T09:12:12;3.43;;;1.77;;
30147;SDS011;16960;49.404;8.248;2023-09-19T09:14:40;3.63;;;1.60;;
30147;SDS011;16960;49.404;8.248;2023-09-19T09:17:10;2.60;;;1.40;;
30147;SDS011;16960;49.404;8.248;2023-09-19T09:19:37;2.23;;;1.57;;
30147;SDS011;16960;49.404;8.248;2023-09-19T09:22:07;3.03;;;1.47;;
30147;SDS011;16960;49.404;8.248;2023-09-19T09:24:37;1.77;;;1.50;;
30147;SDS011;16960;49.404;8.248;2023-09-19T09:27:05;1.80;;;1.30;;
30147;SDS011;16960;49.404;8.248;2023-09-19T09:29:42;1.77;;;1.30;;
30147;SDS011;16960;49.404;8.248;2023-09-19T09:32:18;3.23;;;1.50;;
30147;SDS011;16960;49.404;8.248;2023-09-19T09:34:47;3.90;;;1.70;;
30147;SDS011;16960;49.404;8.248;2023-09-19T09:37:16;2.63;;;1.70;;
30147;SDS011;16960;49.404;8.248;2023-09-19T09:39:55;1.37;;;1.10;;
30147;SDS011;16960;49.404;8.248;2023-09-19T09:42:28;1.53;;;1.20;;
30147;SDS011;16960;49.404;8.248;2023-09-19T09:45:11;4.57;;;1.40;;
30147;SDS011;16960;49.404;8.248;2023-09-19T09:47:43;4.67;;;1.80;;
30147;SDS011;16960;49.404;8.248;2023-09-19T09:50:24;3.40;;;1.30;;
30147;SDS011;16960;49.404;8.248;2023-09-19T09:52:54;1.47;;;1.10;;
30147;SDS011;16960;49.404;8.248;2023-09-19T09:55:34;3.50;;;1.60;;
30147;SDS011;16960;49.404;8.248;2023-09-19T09:58:25;4.83;;;1.40;;
30147;SDS011;16960;49.404;8.248;2023-09-19T10:00:54;3.23;;;1.40;;
30147;SDS011;16960;49.404;8.248;2023-09-19T10:03:31;2.03;;;1.13;;
30147;SDS011;16960;49.404;8.248;2023-09-19T10:06:04;2.37;;;1.47;;
30147;SDS011;16960;49.404;8.248;2023-09-19T10:09:02;5.87;;;1.40;;
30147;SDS011;16960;49.404;8.248;2023-09-19T10:11:40;4.07;;;1.60;;
30147;SDS011;16960;49.404;8.248;2023-09-19T10:14:13;4.23;;;1.30;;
30147;SDS011;16960;49.404;8.248;2023-09-19T10:16:45;4.20;;;1.50;;
30147;SDS011;16960;49.404;8.248;2023-09-19T10:19:15;3.10;;;1.53;;
30147;SDS011;16960;49.404;8.248;2023-09-19T10:21:47;2.60;;;1.30;;
30147;SDS011;16960;49.404;8.248;2023-09-19T10:24:16;4.90;;;1.70;;
30147;SDS011;16960;49.404;8.248;2023-09-19T10:26:46;2.80;;;1.43;;
30147;SDS011;16960;49.404;8.248;2023-09-19T10:29:15;2.60;;;1.20;;
30147;SDS011;16960;49.404;8.248;2023-09-19T10:31:45;2.77;;;1.50;;
30147;SDS011;16960;49.404;8.248;2023-09-19T10:34:14;1.67;;;1.10;;
30147;SDS011;16960;49.404;8.248;2023-09-19T10:36:43;1.80;;;1.30;;
30147;SDS011;16960;49.404;8.248;2023-09-19T10:39:12;2.73;;;1.37;;
30147;SDS011;16960;49.404;8.248;2023-09-19T10:41:47;2.73;;;1.30;;
30147;SDS011;16960;49.404;8.248;2023-09-19T10:44:20;3.40;;;1.27;;
30147;SDS011;16960;49.404;8.248;2023-09-19T10:46:50;6.00;;;1.47;;
30147;SDS011;16960;49.404;8.248;2023-09-19T10:49:19;2.67;;;1.20;;
30147;SDS011;16960;49.404;8.248;2023-09-19T10:51:46;1.60;;;1.10;;
30147;SDS011;16960;49.404;8.248;2023-09-19T10:54:16;1.70;;;1.00;;
30147;SDS011;16960;49.404;8.248;2023-09-19T10:56:48;2.13;;;1.10;;
30147;SDS011;16960;49.404;8.248;2023-09-19T10:59:18;1.83;;;1.20;;
30147;SDS011;16960;49.404;8.248;2023-09-19T11:01:46;2.50;;;1.30;;
30147;SDS011;16960;49.404;8.248;2023-09-19T11:04:26;1.97;;;1.20;;
30147;SDS011;16960;49.404;8.248;2023-09-19T11:07:01;4.03;;;1.50;;
30147;SDS011;16960;49.404;8.248;2023-09-19T11:18:55;1.73;;;1.23;;
30147;SDS011;16960;49.404;8.248;2023-09-19T11:24:28;4.90;;;1.53;;
30147;SDS011;16960;49.404;8.248;2023-09-19T11:27:10;4.03;;;1.50;;
30147;SDS011;16960;49.404;8.248;2023-09-19T11:29:40;1.83;;;1.40;;
30147;SDS011;16960;49.404;8.248;2023-09-19T11:32:07;3.20;;;1.30;;
30147;SDS011;16960;49.404;8.248;2023-09-19T11:34:38;2.70;;;1.50;;
30147;SDS011;16960;49.404;8.248;2023-09-19T11:40:10;2.33;;;1.30;;
30147;SDS011;16960;49.404;8.248;2023-09-19T11:42:41;2.97;;;1.13;;
30147;SDS011;16960;49.404;8.248;2023-09-19T11:48:12;2.00;;;1.20;;
30147;SDS011;16960;49.404;8.248;2023-09-19T11:50:41;2.77;;;1.60;;
30147;SDS011;16960;49.404;8.248;2023-09-19T11:53:09;2.57;;;1.30;;
30147;SDS011;16960;49.404;8.248;2023-09-19T11:55:38;3.10;;;1.30;;
30147;SDS011;16960;49.404;8.248;2023-09-19T11:58:06;2.87;;;1.50;;
30147;SDS011;16960;49.404;8.248;2023-09-19T12:00:34;4.03;;;1.50;;
30147;SDS011;16960;49.404;8.248;2023-09-19T12:03:05;1.90;;;1.13;;
30147;SDS011;16960;49.404;8.248;2023-09-19T12:05:36;2.33;;;1.00;;
30147;SDS011;16960;49.404;8.248;2023-09-19T12:08:03;2.13;;;1.30;;
30147;SDS011;16960;49.404;8.248;2023-09-19T12:10:33;1.40;;;1.27;;
30147;SDS011;16960;49.404;8.248;2023-09-19T12:13:00;1.77;;;1.23;;
30147;SDS011;16960;49.404;8.248;2023-09-19T12:15:28;1.43;;;1.10;;
30147;SDS011;16960;49.404;8.248;2023-09-19T12:18:00;2.40;;;1.23;;
30147;SDS011;16960;49.404;8.248;2023-09-19T12:20:43;3.40;;;1.13;;
30147;SDS011;16960;49.404;8.248;2023-09-19T12:23:12;2.80;;;1.00;;
30147;SDS011;16960;49.404;8.248;2023-09-19T12:25:43;3.60;;;1.60;;
30147;SDS011;16960;49.404;8.248;2023-09-19T12:28:12;3.90;;;1.40;;
30147;SDS011;16960;49.404;8.248;2023-09-19T12:30:39;2.67;;;1.30;;
30147;SDS011;16960;49.404;8.248;2023-09-19T12:33:13;3.03;;;1.77;;
30147;SDS011;16960;49.404;8.248;2023-09-19T12:35:46;2.73;;;1.23;;
30147;SDS011;16960;49.404;8.248;2023-09-19T12:38:22;2.43;;;1.27;;
30147;SDS011;16960;49.404;8.248;2023-09-19T12:40:50;2.47;;;1.30;;
30147;SDS011;16960;49.404;8.248;2023-09-19T12:43:17;1.57;;;1.23;;
30147;SDS011;16960;49.404;8.248;2023-09-19T12:45:45;1.70;;;1.37;;
30147;SDS011;16960;49.404;8.248;2023-09-19T12:48:23;4.10;;;1.23;;
30147;SDS011;16960;49.404;8.248;2023-09-19T12:51:04;2.73;;;1.40;;
30147;SDS011;16960;49.404;8.248;2023-09-19T12:53:33;1.80;;;1.20;;
30147;SDS011;16960;49.404;8.248;2023-09-19T12:56:05;2.63;;;1.10;;
30147;SDS011;16960;49.404;8.248;2023-09-19T12:58:33;2.80;;;1.20;;
30147;SDS011;16960;49.404;8.248;2023-09-19T13:01:13;1.30;;;1.00;;
30147;SDS011;16960;49.404;8.248;2023-09-19T13:03:40;3.33;;;1.23;;
30147;SDS011;16960;49.404;8.248;2023-09-19T13:06:09;3.03;;;1.53;;
30147;SDS011;16960;49.404;8.248;2023-09-19T13:08:37;1.80;;;1.23;;
30147;SDS011;16960;49.404;8.248;2023-09-19T13:11:10;1.60;;;1.30;;
30147;SDS011;16960;49.404;8.248;2023-09-19T13:13:38;4.43;;;1.33;;
30147;SDS011;16960;49.404;8.248;2023-09-19T13:16:07;2.43;;;1.50;;
30147;SDS011;16960;49.404;8.248;2023-09-19T13:18:47;2.63;;;1.33;;
30147;SDS011;16960;49.404;8.248;2023-09-19T13:21:27;2.70;;;1.03;;
30147;SDS011;16960;49.404;8.248;2023-09-19T13:26:46;4.00;;;1.40;;
30147;SDS011;16960;49.404;8.248;2023-09-19T13:29:13;2.10;;;1.07;;
30147;SDS011;16960;49.404;8.248;2023-09-19T13:31:45;1.67;;;0.90;;
30147;SDS011;16960;49.404;8.248;2023-09-19T13:34:12;1.63;;;1.20;;
30147;SDS011;16960;49.404;8.248;2023-09-19T13:36:42;1.73;;;1.00;;
30147;SDS011;16960;49.404;8.248;2023-09-19T13:39:09;1.67;;;1.13;;
30147;SDS011;16960;49.404;8.248;2023-09-19T13:41:38;6.67;;;1.27;;
30147;SDS011;16960;49.404;8.248;2023-09-19T13:44:05;1.97;;;1.53;;
30147;SDS011;16960;49.404;8.248;2023-09-19T13:46:33;2.10;;;1.50;;
30147;SDS011;16960;49.404;8.248;2023-09-19T13:49:00;2.67;;;1.20;;
30147;SDS011;16960;49.404;8.248;2023-09-19T13:51:28;2.10;;;1.10;;
30147;SDS011;16960;49.404;8.248;2023-09-19T13:53:58;3.23;;;1.47;;
30147;SDS011;16960;49.404;8.248;2023-09-19T13:56:25;2.43;;;1.30;;
30147;SDS011;16960;49.404;8.248;2023-09-19T13:58:53;2.50;;;1.30;;
30147;SDS011;16960;49.404;8.248;2023-09-19T14:01:20;2.30;;;1.43;;
30147;SDS011;16960;49.404;8.248;2023-09-19T14:03:47;2.43;;;1.50;;
30147;SDS011;16960;49.404;8.248;2023-09-19T14:06:15;2.20;;;1.43;;
30147;SDS011;16960;49.404;8.248;2023-09-19T14:08:42;1.90;;;1.30;;
30147;SDS011;16960;49.404;8.248;2023-09-19T14:11:13;1.97;;;1.07;;
30147;SDS011;16960;49.404;8.248;2023-09-19T14:13:41;1.60;;;1.17;;
30147;SDS011;16960;49.404;8.248;2023-09-19T14:16:12;3.53;;;1.10;;
30147;SDS011;16960;49.404;8.248;2023-09-19T14:18:39;1.97;;;1.17;;
30147;SDS011;16960;49.404;8.248;2023-09-19T14:21:07;2.37;;;0.97;;
30147;SDS011;16960;49.404;8.248;2023-09-19T14:23:36;4.30;;;1.10;;
30147;SDS011;16960;49.404;8.248;2023-09-19T14:26:03;2.47;;;1.17;;
30147;SDS011;16960;49.404;8.248;2023-09-19T14:28:32;1.57;;;1.13;;
30147;SDS011;16960;49.404;8.248;2023-09-19T14:31:03;1.87;;;1.10;;
30147;SDS011;16960;49.404;8.248;2023-09-19T14:33:31;2.13;;;1.17;;
30147;SDS011;16960;49.404;8.248;2023-09-19T14:35:58;2.00;;;1.10;;
30147;SDS011;16960;49.404;8.248;2023-09-19T14:38:28;1.80;;;1.40;;
30147;SDS011;16960;49.404;8.248;2023-09-19T14:40:59;1.30;;;0.90;;
30147;SDS011;16960;49.404;8.248;2023-09-19T14:43:26;2.40;;;1.07;;
30147;SDS011;16960;49.404;8.248;2023-09-19T14:45:55;2.10;;;1.20;;
30147;SDS011;16960;49.404;8.248;2023-09-19T14:48:23;2.20;;;1.23;;
30147;SDS011;16960;49.404;8.248;2023-09-19T14:50:51;1.47;;;1.00;;
30147;SDS011;16960;49.404;8.248;2023-09-19T14:53:18;4.50;;;1.30;;
30147;SDS011;16960;49.404;8.248;2023-09-19T14:55:45;2.57;;;1.40;;
30147;SDS011;16960;49.404;8.248;2023-09-19T14:58:16;2.23;;;1.13;;
30147;SDS011;16960;49.404;8.248;2023-09-19T15:00:44;2.30;;;1.10;;
30147;SDS011;16960;49.404;8.248;2023-09-19T15:03:12;2.37;;;1.30;;
30147;SDS011;16960;49.404;8.248;2023-09-19T15:05:39;2.90;;;1.20;;
30147;SDS011;16960;49.404;8.248;2023-09-19T15:08:06;2.20;;;1.37;;
30147;SDS011;16960;49.404;8.248;2023-09-19T15:10:33;2.40;;;1.20;;
30147;SDS011;16960;49.404;8.248;2023-09-19T15:13:00;3.23;;;1.10;;
30147;SDS011;16960;49.404;8.248;2023-09-19T15:15:27;1.93;;;1.20;;
30147;SDS011;16960;49.404;8.248;2023-09-19T15:17:55;2.00;;;1.20;;
30147;SDS011;16960;49.404;8.248;2023-09-19T15:20:23;2.40;;;0.90;;
30147;SDS011;16960;49.404;8.248;2023-09-19T15:22:51;3.00;;;1.40;;
30147;SDS011;16960;49.404;8.248;2023-09-19T15:25:18;4.93;;;1.30;;